createdAt,value
2019-04-07T00:00:40.992Z,30.70
2019-04-07T00:03:16.245Z,29.90
2019-04-07T00:05:51.625Z,29.63
2019-04-07T00:08:27.360Z,30.20
2019-04-07T00:11:02.990Z,34.47
2019-04-07T00:13:38.393Z,31.80
2019-04-07T00:16:13.609Z,32.03
2019-04-07T00:18:48.718Z,32.83
2019-04-07T00:21:24.072Z,32.40
2019-04-07T00:24:01.742Z,31.30
2019-04-07T00:26:35.911Z,32.00
2019-04-07T00:29:11.053Z,30.43
2019-04-07T00:31:46.125Z,30.00
2019-04-07T00:34:22.113Z,31.30
2019-04-07T00:36:57.263Z,31.20
2019-04-07T00:39:32.643Z,33.07
2019-04-07T00:42:08.157Z,31.20
2019-04-07T00:44:43.349Z,30.27
2019-04-07T00:47:18.604Z,32.47
2019-04-07T00:49:53.751Z,31.03
2019-04-07T00:52:29.536Z,30.87
2019-04-07T00:55:09.954Z,36.57
2019-04-07T00:57:45.625Z,32.60
2019-04-07T01:00:23.671Z,30.40
2019-04-07T01:02:59.385Z,37.13
2019-04-07T01:05:38.557Z,31.80
2019-04-07T01:08:11.823Z,32.27
2019-04-07T01:10:47.023Z,32.33
2019-04-07T01:13:22.147Z,36.10
2019-04-07T01:15:57.199Z,32.17
2019-04-07T01:18:35.549Z,34.37
2019-04-07T01:21:10.653Z,30.50
2019-04-07T01:23:45.631Z,32.97
2019-04-07T01:26:20.650Z,33.23
2019-04-07T01:28:55.650Z,32.73
2019-04-07T01:31:30.656Z,31.97
2019-04-07T01:34:05.920Z,34.60
2019-04-07T01:36:41.314Z,31.97
2019-04-07T01:39:16.870Z,29.87
2019-04-07T01:42:07.942Z,35.60
2019-04-07T01:45:11.523Z,38.40
2019-04-07T01:48:06.098Z,34.17
2019-04-07T01:50:58.179Z,34.10
2019-04-07T01:53:53.192Z,36.40
2019-04-07T01:56:50.090Z,32.97
2019-04-07T01:59:44.346Z,33.47
2019-04-07T02:02:45.506Z,36.07
2019-04-07T02:05:58.664Z,40.80
2019-04-07T02:08:46.374Z,36.43
2019-04-07T02:11:49.583Z,35.13
2019-04-07T02:14:40.947Z,35.97
2019-04-07T02:17:50.657Z,41.60
2019-04-07T02:21:14.313Z,34.87
2019-04-07T02:24:10.219Z,35.13
2019-04-07T02:27:02.886Z,41.23
2019-04-07T02:30:14.759Z,35.80
2019-04-07T02:33:08.511Z,35.23
2019-04-07T02:36:16.039Z,36.33
2019-04-07T02:38:50.438Z,34.40
2019-04-07T02:41:35.094Z,36.50
2019-04-07T02:44:31.991Z,37.10
2019-04-07T02:47:18.695Z,39.47
2019-04-07T02:50:10.766Z,36.47
2019-04-07T02:52:58.041Z,42.93
2019-04-07T02:55:52.587Z,37.17
2019-04-07T02:59:04.736Z,35.63
2019-04-07T03:01:53.121Z,39.13
2019-04-07T03:04:46.088Z,37.37
2019-04-07T03:07:43.118Z,34.13
2019-04-07T03:10:37.107Z,35.57
2019-04-07T03:13:46.514Z,35.87
2019-04-07T03:16:31.013Z,39.10
2019-04-07T03:19:15.151Z,40.33
2019-04-07T03:22:18.265Z,35.63
2019-04-07T03:25:18.484Z,34.97
2019-04-07T03:28:10.301Z,36.57
2019-04-07T03:31:14.746Z,35.40
2019-04-07T03:34:18.457Z,40.17
2019-04-07T03:37:25.635Z,34.97
2019-04-07T03:40:11.629Z,34.20
2019-04-07T03:43:23.952Z,37.10
2019-04-07T03:46:07.954Z,42.00
2019-04-07T03:48:48.221Z,40.13
2019-04-07T03:51:54.497Z,39.93
2019-04-07T03:54:50.935Z,41.43
2019-04-07T03:58:03.689Z,45.90
2019-04-07T04:01:37.126Z,47.23
2019-04-07T04:04:30.030Z,39.60
2019-04-07T04:07:31.304Z,38.87
2019-04-07T04:10:09.867Z,41.33
2019-04-07T04:13:02.302Z,45.40
2019-04-07T04:16:06.229Z,44.40
2019-04-07T04:18:42.614Z,40.90
2019-04-07T04:21:17.847Z,40.73
2019-04-07T04:23:53.090Z,42.63
2019-04-07T04:26:29.162Z,44.57
2019-04-07T04:29:05.783Z,41.57
2019-04-07T04:31:43.423Z,43.07
2019-04-07T04:34:19.175Z,41.67
2019-04-07T04:36:54.569Z,41.97
2019-04-07T04:39:29.705Z,40.40
2019-04-07T04:42:05.478Z,44.57
2019-04-07T04:44:41.018Z,52.33
2019-04-07T04:47:18.999Z,43.00
2019-04-07T04:49:56.190Z,41.93
2019-04-07T04:52:31.924Z,42.83
2019-04-07T04:55:07.414Z,41.67
2019-04-07T04:57:42.626Z,43.43
2019-04-07T05:00:20.239Z,51.83
2019-04-07T05:02:56.041Z,42.83
2019-04-07T05:05:31.121Z,41.97
2019-04-07T05:08:06.838Z,44.10
2019-04-07T05:10:41.993Z,40.57
2019-04-07T05:13:17.041Z,40.30
2019-04-07T05:15:52.197Z,38.77
2019-04-07T05:18:27.744Z,41.20
2019-04-07T05:21:03.130Z,44.30
2019-04-07T05:23:38.566Z,40.60
2019-04-07T05:26:13.740Z,39.17
2019-04-07T05:28:50.418Z,44.90
2019-04-07T05:31:25.860Z,40.60
2019-04-07T05:34:01.793Z,52.83
2019-04-07T05:36:36.976Z,48.90
2019-04-07T05:39:12.763Z,41.83
2019-04-07T05:41:48.341Z,39.20
2019-04-07T05:44:24.382Z,37.70
2019-04-07T05:47:03.570Z,38.90
2019-04-07T05:49:38.921Z,38.27
2019-04-07T05:52:14.951Z,38.33
2019-04-07T05:54:52.437Z,40.60
2019-04-07T05:57:30.873Z,38.67
2019-04-07T06:00:06.573Z,39.27
2019-04-07T06:02:42.824Z,37.73
2019-04-07T06:05:18.738Z,35.83
2019-04-07T06:07:54.503Z,36.40
2019-04-07T06:10:30.006Z,36.57
2019-04-07T06:13:06.094Z,37.93
2019-04-07T06:15:41.219Z,40.07
2019-04-07T06:18:16.357Z,33.33
2019-04-07T06:20:52.030Z,36.23
2019-04-07T06:23:29.493Z,36.60
2019-04-07T06:26:08.898Z,37.63
2019-04-07T06:28:41.283Z,35.37
2019-04-07T06:31:17.377Z,33.87
2019-04-07T06:33:55.038Z,33.60
2019-04-07T06:36:29.666Z,35.57
2019-04-07T06:39:08.257Z,34.27
2019-04-07T06:41:44.351Z,32.43
2019-04-07T06:44:22.173Z,34.07
2019-04-07T06:47:16.724Z,36.70
2019-04-07T06:50:18.988Z,43.37
2019-04-07T06:53:17.325Z,36.30
2019-04-07T06:56:03.881Z,34.67
2019-04-07T06:58:56.552Z,34.90
2019-04-07T07:01:39.714Z,38.27
2019-04-07T07:04:35.556Z,37.60
2019-04-07T07:07:20.683Z,33.83
2019-04-07T07:10:09.474Z,33.70
2019-04-07T07:13:07.518Z,33.40
2019-04-07T07:15:56.265Z,32.13
2019-04-07T07:18:40.332Z,33.60
2019-04-07T07:21:46.812Z,33.73
2019-04-07T07:24:25.101Z,32.77
2019-04-07T07:26:58.723Z,33.00
2019-04-07T07:29:35.281Z,32.03
2019-04-07T07:32:10.354Z,33.07
2019-04-07T07:34:48.680Z,32.40
2019-04-07T07:37:26.150Z,31.70
2019-04-07T07:40:02.253Z,32.13
2019-04-07T07:42:37.953Z,32.70
2019-04-07T07:45:14.026Z,30.57
2019-04-07T07:47:53.229Z,31.00
2019-04-07T07:50:26.645Z,31.70
2019-04-07T07:53:02.584Z,33.17
2019-04-07T07:55:38.574Z,31.20
2019-04-07T07:58:14.015Z,29.03
2019-04-07T08:00:50.610Z,33.27
2019-04-07T08:03:27.267Z,32.27
2019-04-07T08:06:06.366Z,31.70
2019-04-07T08:08:39.632Z,31.37
2019-04-07T08:11:17.521Z,32.13
2019-04-07T08:13:53.595Z,30.33
2019-04-07T08:16:31.071Z,31.33
2019-04-07T08:19:09.259Z,31.53
2019-04-07T08:21:45.419Z,34.10
2019-04-07T08:24:21.834Z,31.17
2019-04-07T08:26:58.857Z,39.43
2019-04-07T08:29:37.143Z,30.27
2019-04-07T08:32:12.154Z,29.60
2019-04-07T08:34:47.346Z,32.37
2019-04-07T08:37:23.342Z,30.77
2019-04-07T08:39:59.387Z,31.50
2019-04-07T08:42:34.720Z,29.37
2019-04-07T08:45:10.093Z,29.93
2019-04-07T08:47:47.355Z,29.30
2019-04-07T08:50:27.720Z,29.33
2019-04-07T08:53:02.127Z,31.73
2019-04-07T08:55:37.276Z,28.93
2019-04-07T08:58:23.603Z,29.10
2019-04-07T09:00:53.067Z,27.10
2019-04-07T09:03:30.554Z,29.33
2019-04-07T09:06:06.266Z,27.17
2019-04-07T09:08:41.645Z,29.00
2019-04-07T09:11:21.659Z,27.63
2019-04-07T09:13:56.937Z,28.00
2019-04-07T09:16:39.484Z,26.77
2019-04-07T09:19:36.808Z,26.83
2019-04-07T09:22:29.820Z,28.57
2019-04-07T09:25:39.992Z,27.00
2019-04-07T09:28:23.997Z,26.53
2019-04-07T09:31:23.313Z,27.10
2019-04-07T09:34:30.260Z,27.70
2019-04-07T09:37:31.026Z,25.00
2019-04-07T09:40:32.862Z,25.40
2019-04-07T09:43:19.937Z,26.00
2019-04-07T09:46:16.608Z,25.30
2019-04-07T09:49:13.529Z,24.97
2019-04-07T09:52:03.470Z,23.00
2019-04-07T09:55:01.257Z,21.77
2019-04-07T09:57:46.145Z,24.43
2019-04-07T10:00:45.441Z,23.00
2019-04-07T10:03:46.378Z,19.27
2019-04-07T10:06:32.351Z,19.90
2019-04-07T10:09:25.675Z,18.50
2019-04-07T10:12:38.120Z,19.20
2019-04-07T10:15:32.845Z,20.17
2019-04-07T10:18:34.054Z,19.07
2019-04-07T10:21:28.621Z,18.20
2019-04-07T10:24:32.540Z,19.10
2019-04-07T10:27:37.092Z,18.37
2019-04-07T10:30:27.688Z,18.77
2019-04-07T10:33:38.106Z,17.17
2019-04-07T10:36:42.355Z,15.13
2019-04-07T10:39:29.426Z,14.50
2019-04-07T10:42:35.913Z,14.10
2019-04-07T10:45:29.643Z,16.00
2019-04-07T10:48:24.858Z,15.80
2019-04-07T10:51:42.807Z,14.33
2019-04-07T10:54:47.266Z,13.57
2019-04-07T10:57:39.972Z,11.43
2019-04-07T11:00:33.430Z,11.07
2019-04-07T11:03:30.031Z,11.37
2019-04-07T11:06:24.758Z,13.80
2019-04-07T11:09:21.154Z,12.13
2019-04-07T11:12:23.564Z,12.60
2019-04-07T11:15:20.316Z,14.20
2019-04-07T11:18:19.056Z,12.70
2019-04-07T11:21:06.498Z,11.50
2019-04-07T11:23:55.511Z,14.50
2019-04-07T11:26:48.592Z,12.43
2019-04-07T11:29:49.647Z,12.27
2019-04-07T11:32:51.253Z,12.47
2019-04-07T11:35:36.925Z,12.20
2019-04-07T11:38:49.487Z,14.93
2019-04-07T11:41:31.673Z,13.50
2019-04-07T11:44:13.866Z,12.43
2019-04-07T11:47:14.237Z,12.50
2019-04-07T11:50:08.190Z,11.43
2019-04-07T11:52:49.383Z,13.23
2019-04-07T11:55:35.526Z,12.10
2019-04-07T11:58:45.162Z,12.17
2019-04-07T12:01:39.476Z,14.00
2019-04-07T12:04:48.993Z,16.50
2019-04-07T12:07:41.364Z,12.83
2019-04-07T12:10:53.504Z,12.67
2019-04-07T12:13:42.943Z,13.03
2019-04-07T12:16:35.000Z,11.80
2019-04-07T12:19:32.218Z,11.87
2019-04-07T12:22:18.296Z,11.70
2019-04-07T12:25:13.138Z,11.00
2019-04-07T12:28:15.869Z,11.17
2019-04-07T12:31:00.363Z,10.87
2019-04-07T12:36:52.991Z,11.40
2019-04-07T12:39:36.100Z,10.80
2019-04-07T12:42:20.327Z,10.13
2019-04-07T12:45:13.457Z,9.33
2019-04-07T12:48:19.708Z,9.90
2019-04-07T12:51:17.590Z,10.37
2019-04-07T12:54:11.788Z,9.10
2019-04-07T12:57:06.178Z,10.10
2019-04-07T12:59:56.116Z,9.93
2019-04-07T13:02:53.241Z,10.53
2019-04-07T13:05:36.646Z,11.50
2019-04-07T13:08:32.142Z,8.87
2019-04-07T13:11:25.456Z,9.73
2019-04-07T13:14:15.174Z,9.40
2019-04-07T13:17:01.701Z,9.27
2019-04-07T13:19:55.262Z,9.37
2019-04-07T13:23:01.940Z,9.20
2019-04-07T13:25:43.946Z,9.83
2019-04-07T13:28:41.783Z,10.90
2019-04-07T13:31:25.769Z,9.47
2019-04-07T13:34:20.025Z,9.40
2019-04-07T13:37:18.813Z,9.10
2019-04-07T13:40:12.973Z,9.97
2019-04-07T13:43:09.950Z,9.50
2019-04-07T13:45:55.831Z,9.83
2019-04-07T13:48:53.677Z,9.07
2019-04-07T13:54:56.915Z,9.00
2019-04-07T13:57:44.062Z,9.40
2019-04-07T14:00:42.945Z,9.60
2019-04-07T14:03:41.726Z,10.17
2019-04-07T14:06:46.463Z,9.30
2019-04-07T14:09:34.149Z,8.00
2019-04-07T14:12:23.780Z,9.70
2019-04-07T14:15:21.619Z,9.63
2019-04-07T14:18:11.302Z,10.60
2019-04-07T14:20:56.203Z,8.93
2019-04-07T14:24:02.533Z,8.60
2019-04-07T14:27:04.378Z,9.47
2019-04-07T14:29:55.917Z,8.53
2019-04-07T14:32:54.670Z,8.87
2019-04-07T14:35:39.058Z,9.00
2019-04-07T14:38:45.563Z,10.27
2019-04-07T14:41:31.259Z,9.50
2019-04-07T14:44:25.815Z,10.97
2019-04-07T14:47:21.901Z,10.80
2019-04-07T14:50:19.009Z,9.60
2019-04-07T14:53:13.252Z,9.63
2019-04-07T14:55:58.253Z,14.83
2019-04-07T14:58:53.769Z,10.40
2019-04-07T15:01:46.899Z,9.10
2019-04-07T15:04:29.129Z,11.27
2019-04-07T15:07:16.135Z,9.63
2019-04-07T15:09:59.828Z,10.10
2019-04-07T15:12:42.525Z,9.97
2019-04-07T15:15:17.639Z,8.83
2019-04-07T15:17:53.078Z,9.83
2019-04-07T15:20:28.285Z,9.40
2019-04-07T15:23:07.441Z,11.50
2019-04-07T15:25:45.784Z,9.73
2019-04-07T15:28:19.740Z,9.97
2019-04-07T15:30:55.611Z,10.27
2019-04-07T15:33:33.620Z,10.20
2019-04-07T15:36:09.126Z,9.53
2019-04-07T15:38:46.433Z,9.20
2019-04-07T15:41:22.236Z,8.67
2019-04-07T15:43:58.501Z,9.27
2019-04-07T15:46:35.458Z,7.87
2019-04-07T15:49:12.671Z,7.60
2019-04-07T15:51:48.783Z,7.63
2019-04-07T15:54:25.407Z,7.60
2019-04-07T15:57:00.793Z,7.50
2019-04-07T15:59:35.943Z,7.60
2019-04-07T16:02:12.158Z,8.80
2019-04-07T16:04:48.091Z,8.20
2019-04-07T16:07:23.717Z,7.77
2019-04-07T16:09:59.742Z,7.80
2019-04-07T16:12:44.911Z,8.20
2019-04-07T16:15:18.128Z,7.13
2019-04-07T16:17:53.243Z,6.77
2019-04-07T16:20:32.417Z,7.83
2019-04-07T16:23:05.503Z,6.90
2019-04-07T16:25:41.836Z,7.33
2019-04-07T16:28:18.817Z,7.93
2019-04-07T16:30:54.267Z,7.67
2019-04-07T16:33:34.103Z,7.73
2019-04-07T16:36:08.662Z,7.83
2019-04-07T16:38:44.354Z,12.30
2019-04-07T16:41:20.023Z,6.90
2019-04-07T16:43:55.098Z,6.67
2019-04-07T16:46:30.485Z,7.53
2019-04-07T16:49:11.506Z,7.50
2019-04-07T16:51:47.318Z,6.80
2019-04-07T16:54:23.387Z,7.40
2019-04-07T16:56:59.403Z,8.47
2019-04-07T16:59:40.733Z,7.70
2019-04-07T17:02:15.637Z,8.30
2019-04-07T17:04:51.521Z,8.17
2019-04-07T17:07:26.651Z,7.33
2019-04-07T17:10:03.493Z,9.13
2019-04-07T17:12:40.616Z,7.70
2019-04-07T17:15:15.790Z,7.23
2019-04-07T17:17:52.477Z,7.30
2019-04-07T17:20:33.375Z,8.50
2019-04-07T17:23:11.160Z,7.90
2019-04-07T17:25:47.086Z,8.33
2019-04-07T17:28:23.824Z,6.90
2019-04-07T17:30:59.923Z,8.47
2019-04-07T17:33:37.918Z,9.00
2019-04-07T17:36:17.576Z,8.70
2019-04-07T17:39:16.389Z,8.00
2019-04-07T17:41:52.005Z,9.10
2019-04-07T17:44:35.050Z,9.40
2019-04-07T17:47:35.460Z,13.43
2019-04-07T17:50:31.525Z,8.33
2019-04-07T17:53:28.577Z,9.87
2019-04-07T17:56:22.231Z,8.97
2019-04-07T17:59:17.137Z,9.93
2019-04-07T18:02:17.401Z,8.27
2019-04-07T18:05:10.620Z,9.67
2019-04-07T18:08:13.375Z,8.07
2019-04-07T18:11:17.657Z,8.97
2019-04-07T18:14:03.700Z,9.30
2019-04-07T18:17:04.695Z,7.83
2019-04-07T18:20:14.077Z,8.33
2019-04-07T18:23:13.729Z,9.43
2019-04-07T18:25:54.476Z,9.20
2019-04-07T18:28:34.913Z,9.17
2019-04-07T18:31:24.519Z,9.97
2019-04-07T18:34:27.279Z,9.50
2019-04-07T18:37:19.162Z,9.47
2019-04-07T18:40:11.995Z,9.27
2019-04-07T18:43:06.324Z,9.00
2019-04-07T18:45:52.642Z,9.50
2019-04-07T18:48:46.271Z,11.07
2019-04-07T18:51:37.121Z,9.70
2019-04-07T18:54:26.887Z,11.73
2019-04-07T18:57:21.725Z,10.20
2019-04-07T19:00:19.953Z,11.10
2019-04-07T19:03:18.506Z,10.57
2019-04-07T19:06:22.022Z,11.20
2019-04-07T19:09:11.166Z,11.33
2019-04-07T19:12:13.504Z,11.67
2019-04-07T19:15:23.700Z,12.93
2019-04-07T19:18:27.251Z,17.80
2019-04-07T19:21:31.925Z,11.03
2019-04-07T19:24:47.568Z,12.67
2019-04-07T19:27:46.489Z,11.40
2019-04-07T19:30:43.636Z,11.77
2019-04-07T19:33:42.148Z,12.37
2019-04-07T19:36:44.410Z,11.83
2019-04-07T19:39:26.357Z,12.70
2019-04-07T19:42:21.881Z,11.87
2019-04-07T19:45:05.878Z,14.33
2019-04-07T19:48:10.078Z,11.43
2019-04-07T19:51:01.923Z,11.00
2019-04-07T19:54:13.556Z,13.03
2019-04-07T19:57:06.597Z,12.60
2019-04-07T19:59:52.770Z,14.73
2019-04-07T20:03:07.665Z,11.43
2019-04-07T20:06:12.937Z,12.13
2019-04-07T20:09:13.034Z,12.53
2019-04-07T20:12:22.048Z,11.47
2019-04-07T20:15:17.620Z,13.20
2019-04-07T20:18:08.524Z,12.60
2019-04-07T20:20:57.506Z,12.57
2019-04-07T20:23:50.116Z,12.13
2019-04-07T20:26:56.726Z,12.63
2019-04-07T20:29:47.771Z,12.60
2019-04-07T20:32:41.011Z,12.67
2019-04-07T20:35:35.006Z,12.87
2019-04-07T20:38:28.947Z,11.70
2019-04-07T20:41:33.760Z,12.43
2019-04-07T20:44:33.908Z,17.37
2019-04-07T20:47:36.171Z,13.10
2019-04-07T20:50:22.524Z,13.10
2019-04-07T20:53:28.297Z,14.17
2019-04-07T20:56:14.400Z,15.07
2019-04-07T20:59:08.483Z,14.83
2019-04-07T21:02:05.545Z,12.80
2019-04-07T21:04:45.215Z,13.97
2019-04-07T21:07:47.073Z,14.10
2019-04-07T21:10:50.708Z,13.70
2019-04-07T21:13:43.044Z,14.57
2019-04-07T21:16:38.005Z,15.30
2019-04-07T21:19:23.296Z,14.00
2019-04-07T21:22:16.961Z,13.20
2019-04-07T21:25:09.798Z,14.87
2019-04-07T21:27:49.254Z,12.87
2019-04-07T21:30:47.056Z,13.63
2019-04-07T21:33:44.232Z,14.00
2019-04-07T21:36:41.721Z,14.73
2019-04-07T21:39:39.704Z,14.10
2019-04-07T21:42:27.395Z,15.53
2019-04-07T21:45:32.543Z,14.43
2019-04-07T21:48:23.886Z,13.53
2019-04-07T21:51:33.258Z,13.97
2019-04-07T21:54:30.731Z,15.53
2019-04-07T21:57:26.971Z,13.80
2019-04-07T22:00:21.169Z,15.13
2019-04-07T22:03:22.564Z,14.03
2019-04-07T22:06:14.892Z,14.20
2019-04-07T22:08:54.279Z,15.47
2019-04-07T22:11:30.453Z,16.90
2019-04-07T22:14:07.685Z,19.17
2019-04-07T22:16:43.868Z,15.53
2019-04-07T22:19:19.078Z,15.43
2019-04-07T22:21:56.573Z,14.83
2019-04-07T22:24:35.861Z,15.93
2019-04-07T22:27:09.544Z,14.83
2019-04-07T22:29:46.967Z,15.93
2019-04-07T22:32:24.088Z,15.10
2019-04-07T22:35:02.644Z,19.83
2019-04-07T22:37:38.089Z,14.73
2019-04-07T22:40:19.380Z,22.97
2019-04-07T22:42:54.600Z,15.53
2019-04-07T22:45:31.139Z,16.60
2019-04-07T22:48:08.226Z,15.03
2019-04-07T22:50:43.683Z,16.00
2019-04-07T22:53:22.442Z,15.77
2019-04-07T22:55:57.470Z,16.80
2019-04-07T22:58:34.366Z,16.33
2019-04-07T23:01:09.498Z,15.80
2019-04-07T23:03:46.342Z,17.30
2019-04-07T23:06:21.529Z,16.17
2019-04-07T23:08:57.349Z,19.73
2019-04-07T23:11:32.978Z,16.37
2019-04-07T23:14:09.454Z,16.57
2019-04-07T23:16:44.752Z,15.87
2019-04-07T23:19:19.866Z,18.47
2019-04-07T23:21:58.764Z,18.27
2019-04-07T23:24:34.955Z,18.70
2019-04-07T23:27:10.417Z,14.60
2019-04-07T23:29:46.384Z,18.40
2019-04-07T23:32:22.058Z,14.30
2019-04-07T23:34:57.648Z,16.40
2019-04-07T23:37:33.661Z,17.50
2019-04-07T23:40:10.655Z,17.23
2019-04-07T23:42:46.676Z,16.70
2019-04-07T23:45:25.338Z,17.37
2019-04-07T23:48:00.484Z,16.80
2019-04-07T23:50:39.575Z,17.80
2019-04-07T23:54:09.448Z,18.27
2019-04-07T23:56:47.563Z,15.87
2019-04-07T23:59:22.928Z,20.17
